Time;durP1;ratioP1;P1;durP2;ratioP2;P2;SDS_P1;SDS_P2;PMS_P1;PMS_P2;Temp;Humidity;BMP_temperature;BMP_pressure;BME280_temperature;BME280_humidity;BME280_pressure;Samples;Min_cycle;Max_cycle;Signal;HPM_P1;HPM_P2
2022/04/29 00:00:18;;;;;;;;;;;24.40;36.30;;;;;;1594546;74;653;-68
2022/04/29 00:02:18;;;;;;;;;;;24.40;36.30;;;;;;1591578;74;1502;-69
2022/04/29 00:04:20;;;;;;;;;;;24.40;36.30;;;;;;1585858;74;686;-67
2022/04/29 00:06:22;;;;;;;;;;;24.30;36.30;;;;;;1568752;74;612;-67
2022/04/29 00:08:24;;;;;;;;;;;24.40;36.30;;;;;;1588854;74;732;-66
2022/04/29 00:10:26;;;;;;;;;;;24.40;36.40;;;;;;1601011;74;686;-67
2022/04/29 00:12:28;;;;;;;;;;;24.40;36.40;;;;;;1591490;74;1982;-67
2022/04/29 00:14:30;;;;;;;;;;;24.30;36.50;;;;;;1586926;74;674;-66
2022/04/29 00:16:32;;;;;;;;;;;24.30;36.50;;;;;;1598664;74;695;-67
2022/04/29 00:18:33;;;;;;;;;;;24.30;36.50;;;;;;1595113;74;659;-67
2022/04/29 00:20:35;;;;;;;;;;;24.30;36.50;;;;;;1596909;74;759;-67
2022/04/29 00:22:37;;;;;;;;;;;24.30;36.50;;;;;;1591651;74;1116;-68
2022/04/29 00:24:39;;;;;;;;;;;24.30;36.50;;;;;;1591129;74;768;-67
2022/04/29 00:26:41;;;;;;;;;;;24.30;36.70;;;;;;1593589;74;662;-66
2022/04/29 00:28:43;;;;;;;;;;;24.30;36.70;;;;;;1574658;75;646;-70
2022/04/29 00:30:45;;;;;;;;;;;24.30;36.80;;;;;;1551234;75;679;-68
2022/04/29 00:32:47;;;;;;;;;;;24.30;36.80;;;;;;1595093;74;1929;-65
2022/04/29 00:34:49;;;;;;;;;;;24.20;36.70;;;;;;1551891;75;869;-69
2022/04/29 00:36:51;;;;;;;;;;;24.20;36.70;;;;;;1552315;75;641;-69
2022/04/29 00:38:53;;;;;;;;;;;24.20;36.90;;;;;;1578551;74;680;-68
2022/04/29 00:40:55;;;;;;;;;;;24.20;36.80;;;;;;1580632;74;1308;-68
2022/04/29 00:42:57;;;;;;;;;;;24.10;36.90;;;;;;1587722;74;1108;-69
2022/04/29 00:44:59;;;;;;;;;;;24.20;37.00;;;;;;1598921;74;687;-68
2022/04/29 00:47:01;;;;;;;;;;;24.10;37.00;;;;;;1572006;75;655;-67
2022/04/29 00:49:03;;;;;;;;;;;24.20;37.00;;;;;;1567855;75;636;-67
2022/04/29 00:51:05;;;;;;;;;;;24.20;36.80;;;;;;1583713;74;1937;-69
2022/04/29 00:53:07;;;;;;;;;;;24.30;36.90;;;;;;1594898;74;682;-69
2022/04/29 00:55:09;;;;;;;;;;;24.20;36.80;;;;;;1600518;74;696;-68
2022/04/29 00:57:12;;;;;;;;;;;24.20;36.90;;;;;;1588536;74;683;-71
2022/04/29 00:59:15;;;;;;;;;;;24.20;37.00;;;;;;1594292;74;1439;-69
2022/04/29 01:01:19;;;;;;;;;;;24.20;37.00;;;;;;1586439;74;1126;-68
2022/04/29 01:03:21;;;;;;;;;;;24.20;36.90;;;;;;1582105;74;1538;-68
2022/04/29 01:05:23;;;;;;;;;;;24.30;37.20;;;;;;1594777;74;627;-69
2022/04/29 01:07:25;;;;;;;;;;;24.30;37.30;;;;;;1590752;74;697;-68
2022/04/29 01:09:27;;;;;;;;;;;24.30;37.20;;;;;;1566064;74;661;-69
2022/04/29 01:11:29;;;;;;;;;;;24.30;37.10;;;;;;1569545;74;1948;-71
2022/04/29 01:13:31;;;;;;;;;;;24.30;37.20;;;;;;1576707;74;786;-68
2022/04/29 01:15:34;;;;;;;;;;;24.30;37.40;;;;;;1562979;74;657;-67
2022/04/29 01:17:36;;;;;;;;;;;24.20;37.10;;;;;;1588715;74;650;-69
2022/04/29 01:19:39;;;;;;;;;;;24.20;37.10;;;;;;1547965;75;733;-68
2022/04/29 01:21:41;;;;;;;;;;;24.20;37.20;;;;;;1550693;75;1153;-68
2022/04/29 01:23:43;;;;;;;;;;;24.20;37.30;;;;;;1580767;74;661;-68
2022/04/29 01:25:45;;;;;;;;;;;24.20;37.30;;;;;;1578406;74;687;-68
2022/04/29 01:27:48;;;;;;;;;;;24.10;37.30;;;;;;1584463;74;699;-69
2022/04/29 01:29:51;;;;;;;;;;;24.10;37.40;;;;;;1574271;74;734;-71
2022/04/29 01:31:53;;;;;;;;;;;24.10;37.50;;;;;;1582294;74;1950;-68
2022/04/29 01:33:55;;;;;;;;;;;24.10;37.60;;;;;;1573338;74;698;-69
2022/04/29 01:35:57;;;;;;;;;;;24.00;37.50;;;;;;1578067;74;1510;-70
2022/04/29 01:37:59;;;;;;;;;;;24.10;37.60;;;;;;1575056;74;676;-70
2022/04/29 01:40:01;;;;;;;;;;;24.00;37.50;;;;;;1576683;74;751;-68
2022/04/29 01:42:03;;;;;;;;;;;24.00;37.60;;;;;;1583208;70;231385;-67
2022/04/29 01:44:05;;;;;;;;;;;24.00;37.60;;;;;;1558836;75;692;-66
2022/04/29 01:46:07;;;;;;;;;;;24.00;37.70;;;;;;1554707;75;646;-67
2022/04/29 01:48:08;;;;;;;;;;;23.90;37.80;;;;;;1544575;75;762;-66
2022/04/29 01:50:10;;;;;;;;;;;23.90;37.80;;;;;;1554141;75;715;-68
2022/04/29 01:52:12;;;;;;;;;;;23.90;37.80;;;;;;1553689;75;1936;-67
2022/04/29 01:54:14;;;;;;;;;;;23.90;37.90;;;;;;1549832;74;666;-67
2022/04/29 01:56:16;;;;;;;;;;;23.90;37.80;;;;;;1552721;75;1533;-67
2022/04/29 01:58:18;;;;;;;;;;;23.90;37.90;;;;;;1557042;75;787;-68
2022/04/29 02:00:20;;;;;;;;;;;23.90;38.00;;;;;;1556513;75;772;-67
2022/04/29 02:02:22;;;;;;;;;;;23.90;38.10;;;;;;1559081;74;1139;-69
2022/04/29 02:04:23;;;;;;;;;;;23.90;38.10;;;;;;1556583;75;740;-69
2022/04/29 02:06:26;;;;;;;;;;;23.80;38.10;;;;;;1551833;75;694;-66
2022/04/29 02:08:28;;;;;;;;;;;23.90;38.20;;;;;;1557228;75;718;-68
2022/04/29 02:10:29;;;;;;;;;;;23.90;38.10;;;;;;1551891;75;767;-68
2022/04/29 02:12:31;;;;;;;;;;;23.80;38.10;;;;;;1548697;75;1923;-67
2022/04/29 02:14:37;;;;;;;;;;;23.90;38.20;;;;;;1544898;74;658;-66
2022/04/29 02:16:39;;;;;;;;;;;23.90;38.20;;;;;;1555106;75;737;-67
2022/04/29 02:18:41;;;;;;;;;;;23.90;38.20;;;;;;1554495;75;718;-65
2022/04/29 02:20:43;;;;;;;;;;;23.90;38.10;;;;;;1554556;75;694;-67
2022/04/29 02:22:45;;;;;;;;;;;23.90;38.10;;;;;;1553872;75;1094;-67
2022/04/29 02:24:47;;;;;;;;;;;23.90;38.20;;;;;;1552230;75;723;-68
2022/04/29 02:26:49;;;;;;;;;;;24.00;38.20;;;;;;1559479;75;757;-67
2022/04/29 02:28:50;;;;;;;;;;;24.00;38.10;;;;;;1554714;75;812;-68
2022/04/29 02:30:52;;;;;;;;;;;24.00;38.10;;;;;;1563138;74;726;-67
2022/04/29 02:32:54;;;;;;;;;;;24.10;38.20;;;;;;1548676;75;1935;-67
2022/04/29 02:34:56;;;;;;;;;;;24.10;38.20;;;;;;1553920;74;701;-68
2022/04/29 02:36:58;;;;;;;;;;;24.20;38.10;;;;;;1568893;74;843;-67
2022/04/29 02:39:02;;;;;;;;;;;24.30;38.10;;;;;;1553208;75;730;-69
2022/04/29 02:41:03;;;;;;;;;;;24.30;38.00;;;;;;1557797;75;813;-68
2022/04/29 02:43:05;;;;;;;;;;;24.40;37.90;;;;;;1560736;74;1115;-67
2022/04/29 02:45:07;;;;;;;;;;;24.30;38.10;;;;;;1559395;74;639;-65
2022/04/29 02:47:09;;;;;;;;;;;24.20;38.30;;;;;;1556676;74;791;-66
2022/04/29 02:49:11;;;;;;;;;;;24.10;38.60;;;;;;1557021;74;782;-68
2022/04/29 02:51:13;;;;;;;;;;;24.00;38.70;;;;;;1553547;75;1453;-69
2022/04/29 02:53:15;;;;;;;;;;;24.00;39.00;;;;;;1558914;74;1922;-67
2022/04/29 02:55:17;;;;;;;;;;;23.90;39.40;;;;;;1554451;74;791;-68
2022/04/29 02:57:19;;;;;;;;;;;23.90;39.60;;;;;;1558153;75;726;-68
2022/04/29 02:59:21;;;;;;;;;;;23.80;39.70;;;;;;1553475;74;714;-65
2022/04/29 03:01:23;;;;;;;;;;;23.80;39.90;;;;;;1550580;75;751;-65
2022/04/29 03:03:25;;;;;;;;;;;23.80;40.00;;;;;;1552940;74;1125;-65
2022/04/29 03:05:27;;;;;;;;;;;23.80;40.10;;;;;;1557656;74;717;-67
2022/04/29 03:07:29;;;;;;;;;;;23.80;40.20;;;;;;1554225;74;803;-66
2022/04/29 03:09:31;;;;;;;;;;;23.70;40.20;;;;;;1558519;75;819;-68
2022/04/29 03:11:33;;;;;;;;;;;23.80;40.20;;;;;;1557979;75;1116;-67
2022/04/29 03:13:35;;;;;;;;;;;23.80;40.30;;;;;;1560477;74;1951;-65
2022/04/29 03:15:37;;;;;;;;;;;23.80;40.30;;;;;;1552267;74;702;-66
2022/04/29 03:19:59;;;;;;;;;;;23.90;40.40;;;;;;1560216;75;700;-65
2022/04/29 03:22:00;;;;;;;;;;;23.90;40.50;;;;;;1558584;75;1163;-65
2022/04/29 03:24:03;;;;;;;;;;;23.80;40.40;;;;;;1563399;74;743;-66
2022/04/29 03:26:05;;;;;;;;;;;23.90;40.60;;;;;;1563210;75;689;-67
2022/04/29 03:28:07;;;;;;;;;;;23.90;40.50;;;;;;1559243;74;791;-63
2022/04/29 03:30:10;;;;;;;;;;;23.80;40.50;;;;;;1559099;74;1583;-65
2022/04/29 03:32:12;;;;;;;;;;;23.80;40.50;;;;;;1552424;74;1940;-64
2022/04/29 03:34:14;;;;;;;;;;;23.80;40.70;;;;;;1558621;75;699;-66
2022/04/29 03:36:16;;;;;;;;;;;23.80;40.70;;;;;;1553097;75;767;-64
2022/04/29 03:38:17;;;;;;;;;;;23.80;40.70;;;;;;1567426;75;686;-64
2022/04/29 03:40:22;;;;;;;;;;;23.90;40.70;;;;;;1568576;75;662;-64
2022/04/29 03:42:25;;;;;;;;;;;23.90;40.80;;;;;;1564432;74;1153;-67
2022/04/29 03:44:27;;;;;;;;;;;23.80;40.70;;;;;;1552292;75;725;-67
2022/04/29 03:46:28;;;;;;;;;;;23.80;40.60;;;;;;1559581;75;792;-64
2022/04/29 03:49:35;;;;;;;;;;;23.80;40.70;;;;;;1557265;74;1476;-67
2022/04/29 03:50:34;;;;;;;;;;;23.90;40.90;;;;;;1555898;74;1351;-67
2022/04/29 03:52:37;;;;;;;;;;;23.80;40.90;;;;;;1558626;75;2059;-67
2022/04/29 03:54:39;;;;;;;;;;;23.90;41.00;;;;;;1560231;74;1640;-70
2022/04/29 03:56:41;;;;;;;;;;;23.90;41.00;;;;;;1552860;74;672;-67
2022/04/29 03:58:43;;;;;;;;;;;23.90;41.00;;;;;;1556939;75;688;-67
2022/04/29 04:00:46;;;;;;;;;;;23.90;40.90;;;;;;1572690;74;652;-65
2022/04/29 04:02:49;;;;;;;;;;;23.90;40.90;;;;;;1565022;74;1124;-63
2022/04/29 04:04:51;;;;;;;;;;;23.90;41.00;;;;;;1545824;75;796;-64
2022/04/29 04:07:00;;;;;;;;;;;23.90;41.00;;;;;;1530141;77;664;-64
2022/04/29 04:08:56;;;;;;;;;;;23.90;41.00;;;;;;1528941;77;1108;-65
2022/04/29 04:10:58;;;;;;;;;;;23.90;40.90;;;;;;1530238;77;496;-64
2022/04/29 04:13:00;;;;;;;;;;;23.90;41.00;;;;;;1568087;75;1950;-65
2022/04/29 04:15:02;;;;;;;;;;;23.80;40.70;;;;;;1554594;74;664;-63
2022/04/29 04:17:04;;;;;;;;;;;23.90;41.10;;;;;;1553637;76;634;-64
2022/04/29 04:19:06;;;;;;;;;;;23.90;41.20;;;;;;1555583;74;670;-63
2022/04/29 04:21:08;;;;;;;;;;;23.90;41.10;;;;;;1568803;75;695;-64
2022/04/29 04:23:10;;;;;;;;;;;23.90;41.10;;;;;;1555195;75;1100;-64
2022/04/29 04:25:13;;;;;;;;;;;24.00;41.20;;;;;;1553313;74;1674;-64
2022/04/29 04:27:15;;;;;;;;;;;23.90;41.10;;;;;;1548299;76;656;-63
2022/04/29 04:29:16;;;;;;;;;;;23.90;41.00;;;;;;1550780;75;627;-67
2022/04/29 04:31:21;;;;;;;;;;;23.90;41.10;;;;;;1559197;75;665;-66
2022/04/29 04:33:22;;;;;;;;;;;23.90;41.20;;;;;;1560834;75;1928;-66
2022/04/29 04:35:24;;;;;;;;;;;24.00;41.30;;;;;;1565728;75;754;-66
2022/04/29 04:37:26;;;;;;;;;;;24.00;41.10;;;;;;1563407;75;652;-67
2022/04/29 04:39:28;;;;;;;;;;;24.00;41.10;;;;;;1555607;76;611;-66
2022/04/29 04:41:30;;;;;;;;;;;23.90;41.00;;;;;;1553778;75;1158;-65
2022/04/29 04:43:32;;;;;;;;;;;24.00;41.00;;;;;;1552389;74;1498;-67
2022/04/29 04:45:34;;;;;;;;;;;24.00;41.00;;;;;;1547576;74;700;-70
2022/04/29 04:47:36;;;;;;;;;;;24.10;41.00;;;;;;1573202;75;633;-65
2022/04/29 04:49:37;;;;;;;;;;;24.00;40.90;;;;;;1555429;76;692;-66
2022/04/29 04:51:39;;;;;;;;;;;24.00;40.60;;;;;;1555054;75;1151;-66
2022/04/29 04:53:41;;;;;;;;;;;24.00;40.00;;;;;;1556234;75;1935;-65
2022/04/29 04:55:43;;;;;;;;;;;24.00;39.90;;;;;;1545327;75;715;-67
2022/04/29 04:57:45;;;;;;;;;;;24.00;39.80;;;;;;1561023;74;724;-66
2022/04/29 04:59:47;;;;;;;;;;;23.90;39.70;;;;;;1571646;75;783;-65
2022/04/29 05:01:49;;;;;;;;;;;24.00;39.70;;;;;;1581922;74;1174;-65
2022/04/29 05:03:51;;;;;;;;;;;24.00;39.50;;;;;;1579528;75;682;-63
2022/04/29 05:05:53;;;;;;;;;;;23.90;39.50;;;;;;1555009;75;626;-65
2022/04/29 05:07:54;;;;;;;;;;;23.90;39.40;;;;;;1555845;75;649;-66
2022/04/29 05:09:56;;;;;;;;;;;24.00;39.30;;;;;;1559736;75;834;-65
2022/04/29 05:11:58;;;;;;;;;;;24.00;39.20;;;;;;1554917;74;1116;-65
2022/04/29 05:14:00;;;;;;;;;;;23.90;39.20;;;;;;1561144;75;2067;-65
2022/04/29 05:16:02;;;;;;;;;;;24.00;39.20;;;;;;1560268;75;705;-65
2022/04/29 05:18:04;;;;;;;;;;;24.00;39.20;;;;;;1558804;75;730;-66
2022/04/29 05:20:07;;;;;;;;;;;23.90;39.20;;;;;;1560807;74;656;-65
2022/04/29 05:22:08;;;;;;;;;;;23.90;39.20;;;;;;1552377;75;1633;-72
2022/04/29 05:24:10;;;;;;;;;;;23.90;39.20;;;;;;1562493;74;887;-65
2022/04/29 05:26:12;;;;;;;;;;;24.00;39.20;;;;;;1561859;74;646;-65
2022/04/29 05:28:14;;;;;;;;;;;24.00;39.20;;;;;;1556521;76;665;-65
2022/04/29 05:30:16;;;;;;;;;;;24.00;39.20;;;;;;1556331;76;743;-65
2022/04/29 05:32:18;;;;;;;;;;;24.00;39.20;;;;;;1553940;75;1117;-64
2022/04/29 05:34:20;;;;;;;;;;;24.00;39.20;;;;;;1555303;75;1914;-65
2022/04/29 05:36:22;;;;;;;;;;;23.90;39.40;;;;;;1555414;75;751;-65
2022/04/29 05:38:24;;;;;;;;;;;24.00;39.20;;;;;;1563955;75;632;-66
2022/04/29 05:42:46;;;;;;;;;;;23.90;39.20;;;;;;1553530;75;1172;-67
2022/04/29 05:44:48;;;;;;;;;;;24.00;39.10;;;;;;1554656;75;703;-65
2022/04/29 05:46:50;;;;;;;;;;;24.00;38.90;;;;;;1569573;74;767;-65
2022/04/29 05:48:51;;;;;;;;;;;23.90;38.90;;;;;;1555231;76;748;-65
2022/04/29 05:50:53;;;;;;;;;;;23.90;38.90;;;;;;1557351;74;754;-66
2022/04/29 05:52:55;;;;;;;;;;;24.00;38.90;;;;;;1556470;75;1950;-65
2022/04/29 05:54:57;;;;;;;;;;;24.10;39.00;;;;;;1565142;75;570;-63
2022/04/29 05:56:59;;;;;;;;;;;24.00;38.60;;;;;;1560278;75;799;-65
2022/04/29 05:59:01;;;;;;;;;;;24.10;38.60;;;;;;1564118;74;800;-65
2022/04/29 06:01:04;;;;;;;;;;;24.00;38.50;;;;;;1565311;76;666;-65
2022/04/29 06:03:06;;;;;;;;;;;24.10;38.60;;;;;;1563286;74;1169;-65
2022/04/29 06:05:09;;;;;;;;;;;24.10;38.50;;;;;;1560238;74;785;-64
2022/04/29 06:07:10;;;;;;;;;;;24.00;38.40;;;;;;1594004;74;745;-65
2022/04/29 06:09:12;;;;;;;;;;;24.00;38.30;;;;;;1571248;74;653;-64
2022/04/29 06:11:14;;;;;;;;;;;24.00;38.30;;;;;;1568803;75;643;-65
2022/04/29 06:13:16;;;;;;;;;;;24.00;38.40;;;;;;1549696;75;1934;-65
2022/04/29 06:15:19;;;;;;;;;;;24.00;38.20;;;;;;1554208;75;780;-65
2022/04/29 06:17:22;;;;;;;;;;;24.00;38.30;;;;;;1560021;75;1517;-66
2022/04/29 06:19:24;;;;;;;;;;;24.00;38.20;;;;;;1559652;75;718;-64
2022/04/29 06:21:26;;;;;;;;;;;23.90;38.20;;;;;;1559726;75;669;-63
2022/04/29 06:23:27;;;;;;;;;;;24.00;38.30;;;;;;1564353;74;1189;-64
2022/04/29 06:25:29;;;;;;;;;;;23.90;38.30;;;;;;1562357;75;704;-66
2022/04/29 06:27:31;;;;;;;;;;;24.00;38.30;;;;;;1564054;75;652;-65
2022/04/29 06:29:33;;;;;;;;;;;23.90;38.30;;;;;;1555446;75;713;-65
2022/04/29 06:31:35;;;;;;;;;;;23.90;38.30;;;;;;1557416;75;1132;-66
2022/04/29 06:33:41;;;;;;;;;;;23.90;38.30;;;;;;1560005;75;1941;-65
2022/04/29 06:35:47;;;;;;;;;;;23.90;38.30;;;;;;1537503;75;1605;-65
2022/04/29 06:37:44;;;;;;;;;;;23.90;38.40;;;;;;1552311;74;1673;-66
2022/04/29 06:39:46;;;;;;;;;;;23.90;38.40;;;;;;1558118;74;719;-63
2022/04/29 06:41:48;;;;;;;;;;;23.90;38.40;;;;;;1549689;75;1110;-64
2022/04/29 06:43:50;;;;;;;;;;;23.90;38.30;;;;;;1559065;75;751;-65
2022/04/29 06:45:52;;;;;;;;;;;23.90;38.30;;;;;;1549834;75;745;-66
2022/04/29 06:47:53;;;;;;;;;;;24.00;38.30;;;;;;1556578;75;747;-66
2022/04/29 06:49:55;;;;;;;;;;;23.90;38.30;;;;;;1557636;75;801;-65
2022/04/29 06:51:58;;;;;;;;;;;24.00;38.30;;;;;;1556239;74;1151;-66
2022/04/29 06:54:00;;;;;;;;;;;23.90;38.30;;;;;;1545132;75;1925;-66
2022/04/29 06:56:02;;;;;;;;;;;23.90;38.30;;;;;;1545800;75;724;-63
2022/04/29 06:58:04;;;;;;;;;;;23.90;38.30;;;;;;1549987;74;744;-63
2022/04/29 07:00:06;;;;;;;;;;;24.00;38.30;;;;;;1546473;75;714;-66
2022/04/29 07:02:08;;;;;;;;;;;23.90;38.30;;;;;;1549592;75;1307;-66
2022/04/29 07:04:11;;;;;;;;;;;24.00;38.20;;;;;;1551538;75;725;-65
2022/04/29 07:06:13;;;;;;;;;;;23.90;38.20;;;;;;1550923;74;652;-65
2022/04/29 07:08:15;;;;;;;;;;;23.90;38.10;;;;;;1551881;75;786;-67
2022/04/29 07:10:17;;;;;;;;;;;23.90;38.20;;;;;;1555207;75;811;-64
2022/04/29 07:12:19;;;;;;;;;;;23.90;38.10;;;;;;1555708;75;1143;-64
2022/04/29 07:14:22;;;;;;;;;;;23.90;38.20;;;;;;1550497;74;1935;-62
2022/04/29 07:16:24;;;;;;;;;;;23.90;38.30;;;;;;1562807;74;728;-66
2022/04/29 07:18:26;;;;;;;;;;;24.00;38.40;;;;;;1557712;74;703;-63
2022/04/29 07:20:28;;;;;;;;;;;24.00;38.50;;;;;;1549906;74;711;-68
2022/04/29 07:22:30;;;;;;;;;;;24.00;38.50;;;;;;1557850;74;1135;-66
2022/04/29 07:24:32;;;;;;;;;;;24.00;38.40;;;;;;1560779;74;672;-67
2022/04/29 07:26:35;;;;;;;;;;;23.90;38.50;;;;;;1557237;74;722;-65
2022/04/29 07:28:36;;;;;;;;;;;24.00;38.40;;;;;;1559367;74;680;-66
2022/04/29 07:30:38;;;;;;;;;;;23.90;38.40;;;;;;1563662;74;739;-65
2022/04/29 07:32:40;;;;;;;;;;;24.00;38.30;;;;;;1551636;75;1441;-65
2022/04/29 07:41:45;;;;;;;;;;;24.00;38.20;;;;;;1543546;75;1341;-65
2022/04/29 07:43:46;;;;;;;;;;;24.00;38.10;;;;;;1563043;71;2090;-68
2022/04/29 07:45:51;;;;;;;;;;;24.00;38.20;;;;;;1558045;74;695;-68
2022/04/29 07:47:52;;;;;;;;;;;24.00;38.20;;;;;;1568267;74;1618;-69
2022/04/29 07:49:54;;;;;;;;;;;23.90;38.20;;;;;;1563316;74;694;-67
2022/04/29 07:51:56;;;;;;;;;;;23.90;38.10;;;;;;1577126;74;768;-68
2022/04/29 07:53:58;;;;;;;;;;;23.90;38.20;;;;;;1595285;74;1954;-68
2022/04/29 07:56:00;;;;;;;;;;;24.00;38.10;;;;;;1593129;72;628;-67
2022/04/29 07:58:07;;;;;;;;;;;24.00;38.10;;;;;;1602532;73;704;-69
2022/04/29 08:00:06;;;;;;;;;;;24.00;38.10;;;;;;1588928;73;857;-70
2022/04/29 08:02:08;;;;;;;;;;;23.90;38.10;;;;;;1604138;73;1174;-69
2022/04/29 08:04:12;;;;;;;;;;;24.00;38.10;;;;;;1601552;72;688;-67
2022/04/29 08:06:13;;;;;;;;;;;24.00;38.10;;;;;;1602797;74;680;-68
2022/04/29 08:08:15;;;;;;;;;;;24.00;38.10;;;;;;1589086;74;665;-70
2022/04/29 08:10:17;;;;;;;;;;;24.00;38.10;;;;;;1594427;73;1528;-69
2022/04/29 08:12:21;;;;;;;;;;;24.00;38.10;;;;;;1604402;73;1133;-68
2022/04/29 08:14:23;;;;;;;;;;;24.00;37.90;;;;;;1600255;72;1886;-68
2022/04/29 08:16:25;;;;;;;;;;;24.10;37.90;;;;;;1612624;73;676;-70
2022/04/29 08:18:27;;;;;;;;;;;24.20;37.80;;;;;;1611070;72;630;-69
2022/04/29 08:20:28;;;;;;;;;;;24.20;37.60;;;;;;1600893;73;748;-68
2022/04/29 08:22:30;;;;;;;;;;;24.20;37.60;;;;;;1580509;73;1173;-69
2022/04/29 08:24:32;;;;;;;;;;;24.20;37.50;;;;;;1601596;73;604;-69
2022/04/29 08:26:34;;;;;;;;;;;24.20;37.50;;;;;;1601430;73;704;-69
2022/04/29 08:28:36;;;;;;;;;;;24.20;37.50;;;;;;1604156;73;1457;-71
2022/04/29 08:30:38;;;;;;;;;;;24.20;37.50;;;;;;1596565;73;720;-69
2022/04/29 08:32:41;;;;;;;;;;;24.10;37.50;;;;;;1600695;74;1126;-68
2022/04/29 08:34:43;;;;;;;;;;;24.10;37.60;;;;;;1603258;72;1920;-70
2022/04/29 08:36:45;;;;;;;;;;;24.10;37.50;;;;;;1604532;73;795;-68
2022/04/29 08:38:47;;;;;;;;;;;24.10;37.50;;;;;;1603847;73;644;-69
2022/04/29 08:40:49;;;;;;;;;;;24.00;37.40;;;;;;1604643;74;688;-69
2022/04/29 08:42:51;;;;;;;;;;;24.00;37.40;;;;;;1604204;73;1131;-68
2022/04/29 08:44:53;;;;;;;;;;;24.10;37.50;;;;;;1598718;74;606;-69
2022/04/29 08:46:55;;;;;;;;;;;24.10;37.50;;;;;;1606889;72;723;-69
2022/04/29 08:48:57;;;;;;;;;;;24.10;37.40;;;;;;1592785;72;622;-69
2022/04/29 08:50:59;;;;;;;;;;;24.10;37.40;;;;;;1562841;74;639;-69
2022/04/29 08:53:01;;;;;;;;;;;24.00;37.30;;;;;;1596087;72;1166;-71
2022/04/29 08:59:46;;;;;;;;;;;24.10;38.10;;;;;;1616572;72;657;-69
2022/04/29 09:01:48;;;;;;;;;;;24.10;38.00;;;;;;1601521;73;644;-68
2022/04/29 09:03:49;;;;;;;;;;;24.10;38.00;;;;;;1588775;72;1170;-69
2022/04/29 09:05:51;;;;;;;;;;;24.10;38.00;;;;;;1596998;73;1495;-69
2022/04/29 09:07:54;;;;;;;;;;;24.00;37.80;;;;;;1594125;72;588;-69
2022/04/29 09:10:03;;;;;;;;;;;24.00;37.80;;;;;;1603409;73;708;-74
2022/04/29 09:12:16;;;;;;;;;;;24.20;37.90;;;;;;1596812;73;934;-69
2022/04/29 09:14:24;;;;;;;;;;;24.00;37.80;;;;;;1597581;73;1931;-68
2022/04/29 09:16:26;;;;;;;;;;;24.00;37.80;;;;;;1608905;73;690;-70
2022/04/29 09:18:34;;;;;;;;;;;24.10;37.90;;;;;;1599141;73;653;-69
2022/04/29 09:20:36;;;;;;;;;;;24.10;37.90;;;;;;1592408;73;1026;-71
2022/04/29 09:22:39;;;;;;;;;;;24.10;38.00;;;;;;1603472;72;1153;-70
2022/04/29 09:24:40;;;;;;;;;;;24.20;37.80;;;;;;1571211;74;698;-70
2022/04/29 09:26:42;;;;;;;;;;;24.30;37.50;;;;;;1599942;74;579;-70
2022/04/29 09:28:45;;;;;;;;;;;24.70;37.00;;;;;;1603920;74;698;-69
2022/04/29 09:30:48;;;;;;;;;;;24.60;36.50;;;;;;1607145;72;620;-70
2022/04/29 09:32:50;;;;;;;;;;;24.60;36.40;;;;;;1597491;72;1138;-69
2022/04/29 09:34:58;;;;;;;;;;;24.50;36.20;;;;;;1599663;74;1932;-67
2022/04/29 09:36:56;;;;;;;;;;;24.50;36.10;;;;;;1602872;72;1569;-68
2022/04/29 09:41:24;;;;;;;;;;;24.40;35.80;;;;;;1603902;74;630;-67
2022/04/29 09:43:33;;;;;;;;;;;24.40;35.70;;;;;;1598833;72;1130;-69
2022/04/29 09:45:35;;;;;;;;;;;24.40;35.60;;;;;;1581495;74;537;-72
2022/04/29 09:47:37;;;;;;;;;;;24.40;35.40;;;;;;1603348;72;678;-67
2022/04/29 09:49:39;;;;;;;;;;;24.40;35.30;;;;;;1591439;72;757;-68
2022/04/29 09:51:42;;;;;;;;;;;24.40;35.20;;;;;;1602343;73;658;-68
2022/04/29 09:53:44;;;;;;;;;;;24.40;35.10;;;;;;1603006;72;1162;-67
2022/04/29 09:56:04;;;;;;;;;;;24.30;35.00;;;;;;1599168;72;1923;-70
2022/04/29 09:58:09;;;;;;;;;;;24.30;35.00;;;;;;1600479;73;748;-68
2022/04/29 10:00:10;;;;;;;;;;;24.30;34.90;;;;;;1603846;74;1626;-69
2022/04/29 10:02:13;;;;;;;;;;;24.20;34.60;;;;;;1613984;72;1487;-70
2022/04/29 10:04:14;;;;;;;;;;;24.30;34.70;;;;;;1603389;73;663;-70
2022/04/29 10:06:17;;;;;;;;;;;24.20;34.30;;;;;;1601726;73;670;-71
2022/04/29 10:08:19;;;;;;;;;;;24.20;34.20;;;;;;1603652;73;691;-69
2022/04/29 10:10:21;;;;;;;;;;;24.20;34.10;;;;;;1595455;73;674;-69
2022/04/29 10:12:23;;;;;;;;;;;24.20;34.00;;;;;;1598713;74;1165;-69
2022/04/29 10:14:25;;;;;;;;;;;24.20;34.00;;;;;;1603529;72;1912;-72
2022/04/29 10:16:28;;;;;;;;;;;24.20;33.90;;;;;;1605197;73;641;-71
2022/04/29 10:23:10;;;;;;;;;;;24.20;33.60;;;;;;1598008;73;1790;-70
2022/04/29 10:25:12;;;;;;;;;;;24.10;33.60;;;;;;1595958;73;589;-69
2022/04/29 10:27:15;;;;;;;;;;;24.10;33.50;;;;;;1595907;73;659;-69
2022/04/29 10:29:17;;;;;;;;;;;24.10;33.50;;;;;;1597151;73;721;-72
2022/04/29 10:31:22;;;;;;;;;;;24.10;33.40;;;;;;1597675;73;690;-69
2022/04/29 10:33:24;;;;;;;;;;;24.10;33.40;;;;;;1595136;72;1123;-69
2022/04/29 10:35:43;;;;;;;;;;;24.10;33.40;;;;;;1593877;73;1922;-70
2022/04/29 10:37:45;;;;;;;;;;;24.10;33.30;;;;;;1595383;73;717;-68
2022/04/29 10:39:48;;;;;;;;;;;24.00;33.10;;;;;;1587199;74;669;-68
2022/04/29 10:42:03;;;;;;;;;;;24.00;33.10;;;;;;1585053;72;943;-68
2022/04/29 10:44:06;;;;;;;;;;;24.00;33.00;;;;;;1599510;72;997;-73
2022/04/29 10:46:10;;;;;;;;;;;24.10;33.00;;;;;;1604196;72;691;-68
2022/04/29 10:48:30;;;;;;;;;;;24.10;33.00;;;;;;1596489;74;697;-70
2022/04/29 10:50:34;;;;;;;;;;;24.00;32.70;;;;;;1604337;72;657;-69
2022/04/29 10:52:36;;;;;;;;;;;24.00;32.80;;;;;;1593419;72;1145;-73
2022/04/29 10:54:43;;;;;;;;;;;24.00;32.80;;;;;;1604134;73;1936;-69
2022/04/29 10:56:45;;;;;;;;;;;24.00;32.70;;;;;;1598598;74;683;-71
2022/04/29 10:58:47;;;;;;;;;;;24.00;32.70;;;;;;1587985;73;1513;-69
2022/04/29 11:00:50;;;;;;;;;;;24.00;32.80;;;;;;1606296;72;657;-66
2022/04/29 11:02:52;;;;;;;;;;;24.00;32.40;;;;;;1568137;73;1121;-67
2022/04/29 11:04:54;;;;;;;;;;;24.00;32.60;;;;;;1599037;74;721;-67
2022/04/29 11:06:56;;;;;;;;;;;24.00;32.50;;;;;;1588957;74;674;-68
2022/04/29 11:08:58;;;;;;;;;;;24.00;32.50;;;;;;1588340;72;750;-67
2022/04/29 11:11:01;;;;;;;;;;;24.00;32.50;;;;;;1601714;72;677;-67
2022/04/29 11:13:05;;;;;;;;;;;24.00;32.50;;;;;;1603473;72;1158;-68
2022/04/29 11:15:09;;;;;;;;;;;24.00;32.60;;;;;;1603217;72;1901;-66
2022/04/29 11:17:14;;;;;;;;;;;24.00;32.50;;;;;;1606541;72;724;-68
2022/04/29 11:19:20;;;;;;;;;;;24.00;32.40;;;;;;1605658;72;816;-67
2022/04/29 11:26:04;;;;;;;;;;;24.00;32.30;;;;;;1597387;73;955;-66
2022/04/29 11:28:06;;;;;;;;;;;23.90;32.20;;;;;;1605089;73;683;-68
2022/04/29 11:30:09;;;;;;;;;;;23.90;32.20;;;;;;1608209;72;626;-67
2022/04/29 11:32:12;;;;;;;;;;;23.90;32.10;;;;;;1602005;73;1152;-66
2022/04/29 11:34:14;;;;;;;;;;;23.90;32.10;;;;;;1599767;73;691;-66
2022/04/29 11:36:16;;;;;;;;;;;23.90;32.10;;;;;;1600357;73;1927;-66
2022/04/29 11:38:18;;;;;;;;;;;23.90;32.00;;;;;;1605482;72;618;-67
2022/04/29 11:40:19;;;;;;;;;;;23.90;31.90;;;;;;1608213;73;763;-69
2022/04/29 11:42:22;;;;;;;;;;;23.90;31.80;;;;;;1566059;74;1149;-68
2022/04/29 11:44:34;;;;;;;;;;;23.90;31.80;;;;;;1569409;74;735;-69
2022/04/29 11:46:37;;;;;;;;;;;23.90;31.70;;;;;;1541553;76;573;-69
2022/04/29 11:48:39;;;;;;;;;;;23.90;31.70;;;;;;1543798;75;1141;-67
2022/04/29 11:50:40;;;;;;;;;;;23.90;31.60;;;;;;1518634;77;1164;-68
2022/04/29 11:52:42;;;;;;;;;;;23.90;31.70;;;;;;1573384;74;1136;-68
2022/04/29 11:54:51;;;;;;;;;;;24.10;31.80;;;;;;1572556;74;1527;-68
2022/04/29 11:56:53;;;;;;;;;;;24.10;31.70;;;;;;1560732;75;1945;-68
2022/04/29 11:58:54;;;;;;;;;;;24.20;31.50;;;;;;1569055;74;715;-69
2022/04/29 12:00:56;;;;;;;;;;;24.30;31.40;;;;;;1568148;74;672;-67
2022/04/29 12:02:59;;;;;;;;;;;24.30;31.30;;;;;;1560080;74;1144;-67
2022/04/29 12:05:01;;;;;;;;;;;24.30;31.30;;;;;;1558130;75;646;-68
2022/04/29 12:07:05;;;;;;;;;;;24.10;31.10;;;;;;1564089;74;688;-70
2022/04/29 12:09:08;;;;;;;;;;;24.10;31.00;;;;;;1565247;74;1328;-69
2022/04/29 12:11:10;;;;;;;;;;;24.00;30.90;;;;;;1561669;75;646;-69
2022/04/29 12:13:12;;;;;;;;;;;24.00;31.10;;;;;;1564199;74;1170;-68
2022/04/29 12:15:15;;;;;;;;;;;23.90;31.00;;;;;;1559103;75;1922;-71
2022/04/29 12:17:17;;;;;;;;;;;23.90;31.20;;;;;;1559842;75;1224;-70
2022/04/29 12:19:21;;;;;;;;;;;23.80;31.20;;;;;;1564069;74;704;-70
2022/04/29 12:21:23;;;;;;;;;;;23.80;31.20;;;;;;1560927;74;629;-68
2022/04/29 12:23:25;;;;;;;;;;;23.90;31.40;;;;;;1570882;74;1131;-70
2022/04/29 12:25:28;;;;;;;;;;;23.80;31.30;;;;;;1569847;74;671;-68
2022/04/29 12:27:32;;;;;;;;;;;23.40;31.10;;;;;;1572993;74;677;-68
2022/04/29 12:29:34;;;;;;;;;;;23.80;31.40;;;;;;1537202;75;739;-69
2022/04/29 12:36:20;;;;;;;;;;;23.80;31.40;;;;;;1542231;74;1936;-68
2022/04/29 12:38:22;;;;;;;;;;;23.80;31.50;;;;;;1544103;74;672;-66
2022/04/29 12:40:30;;;;;;;;;;;23.80;31.50;;;;;;1578035;74;625;-69
2022/04/29 12:42:32;;;;;;;;;;;23.80;31.50;;;;;;1556241;74;1154;-71